createdAt,value
2023-02-09T00:04:04.263Z,102170.59
2023-02-09T00:09:06.965Z,102183.03
2023-02-09T00:14:09.788Z,102171.97
2023-02-09T00:19:14.362Z,102172.81
2023-02-09T00:24:17.528Z,102169.28
2023-02-09T00:29:22.383Z,102172.59
2023-02-09T00:34:27.151Z,102171.06
2023-02-09T00:39:31.642Z,102173.47
2023-02-09T00:44:35.295Z,102166.63
2023-02-09T00:49:40.392Z,102163.31
2023-02-09T00:54:43.303Z,102158.38
2023-02-09T00:59:46.033Z,102157.91
2023-02-09T01:04:50.368Z,102161.41
2023-02-09T01:09:53.124Z,102157.31
2023-02-09T01:14:55.916Z,102149.56
2023-02-09T01:20:00.179Z,102139.97
2023-02-09T01:25:02.957Z,102137.69
2023-02-09T01:30:06.398Z,102124.75
2023-02-09T01:35:11.457Z,102124.91
2023-02-09T01:40:14.174Z,102123.47
2023-02-09T01:45:30.814Z,102118.81
2023-02-09T01:50:38.508Z,102111.31
2023-02-09T01:55:45.709Z,102107.78
2023-02-09T02:00:48.807Z,102109.06
2023-02-09T02:05:57.159Z,102103.94
2023-02-09T02:10:59.981Z,102112.50
2023-02-09T02:16:06.440Z,102115.94
2023-02-09T02:21:45.279Z,102101.44
2023-02-09T02:26:58.059Z,102111.78
2023-02-09T02:32:24.557Z,102095.66
2023-02-09T02:37:46.348Z,102095.78
2023-02-09T02:42:53.129Z,102094.06
2023-02-09T02:48:03.077Z,102084.69
2023-02-09T02:53:07.305Z,102091.41
2023-02-09T02:58:12.501Z,102083.03
2023-02-09T03:03:19.716Z,102084.66
2023-02-09T03:08:22.416Z,102084.81
2023-02-09T03:13:39.316Z,102081.50
2023-02-09T03:18:52.782Z,102084.09
2023-02-09T03:24:00.203Z,102083.22
2023-02-09T03:29:03.490Z,102080.84
2023-02-09T03:34:08.005Z,102068.09
2023-02-09T03:39:10.913Z,102074.00
2023-02-09T03:44:29.540Z,102064.56
2023-02-09T03:49:35.994Z,102062.06
2023-02-09T03:54:39.055Z,102060.31
2023-02-09T03:59:42.013Z,102055.19
2023-02-09T04:04:46.319Z,102057.59
2023-02-09T04:09:49.258Z,102057.75
2023-02-09T04:14:52.033Z,102043.13
2023-02-09T04:19:56.139Z,102050.69
2023-02-09T04:24:58.847Z,102034.41
2023-02-09T04:30:01.536Z,102043.91
2023-02-09T04:35:06.069Z,102032.09
2023-02-09T04:40:10.046Z,102039.16
2023-02-09T04:45:12.866Z,102032.25
2023-02-09T04:50:17.407Z,102019.38
2023-02-09T04:55:20.313Z,102024.63
2023-02-09T05:00:23.162Z,102025.75
2023-02-09T05:05:27.307Z,102024.72
2023-02-09T05:10:30.036Z,102027.22
2023-02-09T05:15:32.847Z,102023.84
2023-02-09T05:20:37.419Z,102025.53
2023-02-09T05:25:40.411Z,102027.09
2023-02-09T05:30:43.700Z,102013.41
2023-02-09T05:35:47.968Z,102009.38
2023-02-09T05:40:51.218Z,102008.63
2023-02-09T05:45:54.113Z,102001.69
2023-02-09T05:50:58.138Z,102010.91
2023-02-09T05:56:00.917Z,102011.69
2023-02-09T06:01:05.346Z,102010.13
2023-02-09T06:06:09.643Z,102003.19
2023-02-09T06:11:12.465Z,102001.56
2023-02-09T06:16:15.181Z,101999.78
2023-02-09T06:21:19.283Z,101991.06
2023-02-09T06:26:22.135Z,101988.34
2023-02-09T06:31:25.023Z,102000.31
2023-02-09T06:36:29.186Z,101999.41
2023-02-09T06:41:31.903Z,102003.63
2023-02-09T06:46:34.724Z,102020.63
2023-02-09T06:51:38.850Z,102025.72
2023-02-09T06:56:41.718Z,102025.63
2023-02-09T07:01:44.482Z,102031.00
2023-02-09T07:06:48.605Z,102030.38
2023-02-09T07:11:51.328Z,102026.63
2023-02-09T07:16:54.172Z,102029.78
2023-02-09T07:21:58.227Z,102022.69
2023-02-09T07:27:00.891Z,102022.50
2023-02-09T07:32:03.621Z,102021.38
2023-02-09T07:37:07.928Z,102022.16
2023-02-09T07:42:10.741Z,102018.59
2023-02-09T07:47:32.100Z,102020.16
2023-02-09T07:52:36.222Z,102019.16
2023-02-09T07:57:38.933Z,102011.38
2023-02-09T08:02:41.627Z,102017.19
2023-02-09T08:07:46.560Z,102022.25
2023-02-09T08:13:02.300Z,102026.34
2023-02-09T08:18:10.200Z,102031.34
2023-02-09T08:23:19.629Z,102037.22
2023-02-09T08:28:38.252Z,102036.28
2023-02-09T08:33:46.666Z,102025.75
2023-02-09T08:38:50.786Z,102024.72
2023-02-09T08:43:53.602Z,102034.00
2023-02-09T08:48:56.292Z,102020.97
2023-02-09T08:54:00.377Z,102004.53
2023-02-09T08:59:03.070Z,102017.13
2023-02-09T09:04:05.916Z,102010.88
2023-02-09T09:09:10.096Z,102007.31
2023-02-09T09:14:12.934Z,102009.59
2023-02-09T09:19:15.640Z,102002.53
2023-02-09T09:24:19.909Z,102007.31
2023-02-09T09:29:22.712Z,102009.69
2023-02-09T09:34:25.632Z,102017.13
2023-02-09T09:39:29.821Z,102013.41
2023-02-09T09:44:34.918Z,102020.00
2023-02-09T09:49:38.204Z,102021.31
2023-02-09T09:54:42.899Z,102026.16
2023-02-09T09:59:45.706Z,102025.19
2023-02-09T10:04:49.088Z,102017.47
2023-02-09T10:09:56.840Z,102019.84
2023-02-09T10:14:59.962Z,102016.16
2023-02-09T10:20:05.510Z,102022.69
2023-02-09T10:25:38.259Z,102020.69
2023-02-09T10:30:41.409Z,102001.31
2023-02-09T10:35:46.287Z,101992.34
2023-02-09T10:40:51.286Z,101984.22
2023-02-09T10:45:55.806Z,101963.88
2023-02-09T10:50:59.929Z,101947.53
2023-02-09T10:56:07.917Z,101938.66
2023-02-09T11:01:18.404Z,101925.16
2023-02-09T11:06:21.221Z,101917.50
2023-02-09T11:11:30.483Z,101913.34
2023-02-09T11:16:57.535Z,101900.38
2023-02-09T11:22:04.137Z,101869.38
2023-02-09T11:27:23.618Z,101844.34
2023-02-09T11:32:28.265Z,101864.28
2023-02-09T11:37:36.892Z,101873.81
2023-02-09T11:42:47.720Z,101865.28
2023-02-09T11:47:57.824Z,101871.19
2023-02-09T11:53:03.255Z,101862.13
2023-02-09T11:58:37.252Z,101866.50
2023-02-09T12:03:40.637Z,101851.97
2023-02-09T12:08:51.210Z,101829.47
2023-02-09T12:14:05.424Z,101803.59
2023-02-09T12:19:24.761Z,101810.63
2023-02-09T12:24:35.252Z,101806.88
2023-02-09T12:29:40.602Z,101801.28
2023-02-09T12:34:44.853Z,101798.28
2023-02-09T12:40:18.394Z,101803.47
2023-02-09T12:45:34.557Z,101801.34
2023-02-09T12:50:47.621Z,101793.50
2023-02-09T12:55:59.629Z,101799.41
2023-02-09T13:01:03.858Z,101794.25
2023-02-09T13:06:07.633Z,101795.88
2023-02-09T13:11:21.633Z,101765.81
2023-02-09T13:16:53.989Z,101789.59
2023-02-09T13:22:03.391Z,101784.25
2023-02-09T13:27:18.593Z,101777.53
2023-02-09T13:32:31.974Z,101792.13
2023-02-09T13:37:41.592Z,101787.41
2023-02-09T13:42:54.136Z,101796.78
2023-02-09T13:47:59.117Z,101786.69
2023-02-09T13:53:09.338Z,101789.06
2023-02-09T13:58:16.003Z,101783.03
2023-02-09T14:03:21.829Z,101780.31
2023-02-09T14:08:25.662Z,101765.88
2023-02-09T14:13:30.689Z,101767.84
2023-02-09T14:18:44.521Z,101777.22
2023-02-09T14:23:48.633Z,101778.22
2023-02-09T14:28:54.033Z,101795.69
2023-02-09T14:33:58.215Z,101804.19
2023-02-09T14:39:16.975Z,101797.22
2023-02-09T14:44:21.557Z,101794.63
2023-02-09T14:49:28.816Z,101805.19
2023-02-09T14:54:33.860Z,101808.31
2023-02-09T14:59:36.565Z,101802.78
2023-02-09T15:04:41.884Z,101811.16
2023-02-09T15:09:44.716Z,101823.19
2023-02-09T15:14:48.416Z,101821.03
2023-02-09T15:19:53.322Z,101823.31
2023-02-09T15:24:56.090Z,101819.72
2023-02-09T15:30:01.116Z,101816.97
2023-02-09T15:35:06.948Z,101805.31
2023-02-09T15:40:41.551Z,101814.34
2023-02-09T15:46:01.780Z,101810.28
2023-02-09T15:51:06.460Z,101777.63
2023-02-09T15:56:10.139Z,101797.25
2023-02-09T16:01:16.607Z,101805.56
2023-02-09T16:06:24.690Z,101786.97
2023-02-09T16:11:29.191Z,101781.09
2023-02-09T16:16:33.067Z,101791.97
2023-02-09T16:21:37.274Z,101780.28
2023-02-09T16:26:39.999Z,101785.13
2023-02-09T16:31:42.892Z,101789.09
2023-02-09T16:36:48.563Z,101805.78
2023-02-09T16:41:51.590Z,101805.78
2023-02-09T16:46:55.909Z,101814.66
2023-02-09T16:52:20.814Z,101832.00
2023-02-09T16:57:25.388Z,101844.06
2023-02-09T17:02:34.903Z,101838.50
2023-02-09T17:07:52.453Z,101843.16
2023-02-09T17:12:56.600Z,101834.00
2023-02-09T17:18:02.518Z,101832.22
2023-02-09T17:23:07.096Z,101847.47
2023-02-09T17:28:09.882Z,101850.53
2023-02-09T17:33:19.367Z,101859.13
2023-02-09T17:38:26.592Z,101861.09
2023-02-09T17:43:29.459Z,101847.53
2023-02-09T17:48:32.269Z,101849.22
2023-02-09T17:53:37.985Z,101836.22
2023-02-09T17:58:44.116Z,101838.59
2023-02-09T18:03:46.900Z,101832.28
2023-02-09T18:08:51.216Z,101842.72
2023-02-09T18:13:55.460Z,101836.63
2023-02-09T18:18:58.399Z,101845.19
2023-02-09T18:24:02.549Z,101855.75
2023-02-09T18:29:05.340Z,101855.94
2023-02-09T18:34:08.437Z,101864.34
2023-02-09T18:39:12.524Z,101875.16
2023-02-09T18:44:15.432Z,101881.81
2023-02-09T18:49:18.343Z,101876.16
2023-02-09T18:54:22.474Z,101873.34
2023-02-09T18:59:29.028Z,101874.69
2023-02-09T19:04:32.075Z,101881.59
2023-02-09T19:09:36.317Z,101890.03
2023-02-09T19:14:40.611Z,101885.47
2023-02-09T19:19:44.544Z,101889.41
2023-02-09T19:24:52.989Z,101887.56
2023-02-09T19:29:57.174Z,101896.03
2023-02-09T19:34:59.873Z,101894.34
2023-02-09T19:40:10.615Z,101883.59
2023-02-09T19:45:13.544Z,101879.59
2023-02-09T19:50:16.782Z,101872.84
2023-02-09T19:55:21.046Z,101877.28
2023-02-09T20:00:23.799Z,101881.72
2023-02-09T20:05:27.562Z,101880.97
2023-02-09T20:10:31.679Z,101879.25
2023-02-09T20:15:34.666Z,101876.81
2023-02-09T20:20:41.137Z,101868.28
2023-02-09T20:25:45.519Z,101870.84
2023-02-09T20:30:48.717Z,101880.41
2023-02-09T20:35:51.680Z,101883.09
2023-02-09T20:40:55.719Z,101885.75
2023-02-09T20:46:16.105Z,101877.84
2023-02-09T20:51:19.780Z,101890.06
2023-02-09T20:56:24.536Z,101889.09
2023-02-09T21:01:27.545Z,101882.28
2023-02-09T21:06:30.366Z,101898.59
2023-02-09T21:11:34.551Z,101892.69
2023-02-09T21:16:38.339Z,101892.09
2023-02-09T21:21:41.156Z,101899.22
2023-02-09T21:26:45.266Z,101899.13
2023-02-09T21:31:48.252Z,101891.53
2023-02-09T21:36:51.044Z,101902.06
2023-02-09T21:42:17.760Z,101901.41
2023-02-09T21:47:20.649Z,101900.78
2023-02-09T21:52:23.437Z,101907.63
2023-02-09T21:57:27.995Z,101913.69
2023-02-09T22:02:30.780Z,101919.81
2023-02-09T22:07:34.735Z,101918.31
2023-02-09T22:12:39.860Z,101926.97
2023-02-09T22:17:42.563Z,101927.03
2023-02-09T22:22:46.049Z,101938.50
2023-02-09T22:27:50.127Z,101938.50
2023-02-09T22:32:53.292Z,101937.63
2023-02-09T22:37:56.015Z,101938.72
2023-02-09T22:43:00.384Z,101944.97
2023-02-09T22:48:03.091Z,101960.28
2023-02-09T22:53:05.810Z,101958.53
2023-02-09T22:58:09.881Z,101959.50
2023-02-09T23:03:12.592Z,101961.31
2023-02-09T23:08:15.280Z,101965.56
2023-02-09T23:13:19.461Z,101968.22
2023-02-09T23:18:22.194Z,101963.22
2023-02-09T23:23:24.982Z,101958.34
2023-02-09T23:28:29.255Z,101958.34
2023-02-09T23:33:32.036Z,101959.38
2023-02-09T23:38:34.763Z,101953.44
2023-02-09T23:43:38.864Z,101962.09
2023-02-09T23:48:41.868Z,101964.78
2023-02-09T23:53:44.613Z,101956.25
2023-02-09T23:58:51.272Z,101964.22
